createdAt,value
2023-04-07T00:00:23.122Z,0.97
2023-04-07T00:01:23.109Z,0.90
2023-04-07T00:02:23.173Z,0.90
2023-04-07T00:03:23.220Z,0.94
2023-04-07T00:04:23.278Z,0.92
2023-04-07T00:05:23.070Z,0.92
2023-04-07T00:06:23.058Z,0.92
2023-04-07T00:07:23.035Z,0.90
2023-04-07T00:08:23.039Z,0.94
2023-04-07T00:09:23.032Z,0.98
2023-04-07T00:10:23.002Z,0.98
2023-04-07T00:11:23.041Z,0.97
2023-04-07T00:12:22.998Z,0.96
2023-04-07T00:13:22.959Z,0.96
2023-04-07T00:14:22.973Z,0.92
2023-04-07T00:15:22.941Z,0.86
2023-04-07T00:16:23.074Z,0.85
2023-04-07T00:17:22.943Z,0.85
2023-04-07T00:18:22.902Z,0.83
2023-04-07T00:19:22.894Z,0.83
2023-04-07T00:20:22.886Z,0.83
2023-04-07T00:21:22.859Z,0.83
2023-04-07T00:22:22.845Z,0.85
2023-04-07T00:23:22.842Z,0.83
2023-04-07T00:24:31.489Z,0.79
2023-04-07T00:25:23.800Z,0.79
2023-04-07T00:26:22.800Z,0.79
2023-04-07T00:27:22.773Z,0.76
2023-04-07T00:28:22.833Z,0.79
2023-04-07T00:29:22.773Z,0.76
2023-04-07T00:30:22.739Z,0.76
2023-04-07T00:31:22.778Z,0.78
2023-04-07T00:32:22.806Z,0.78
2023-04-07T00:33:22.720Z,0.79
2023-04-07T00:34:22.751Z,0.76
2023-04-07T00:35:22.688Z,0.72
2023-04-07T00:36:22.683Z,0.71
2023-04-07T00:37:22.665Z,0.67
2023-04-07T00:38:22.654Z,0.64
2023-04-07T00:39:22.654Z,0.65
2023-04-07T00:40:22.629Z,0.65
2023-04-07T00:41:22.610Z,0.67
2023-04-07T00:42:22.613Z,0.67
2023-04-07T00:43:22.585Z,0.71
2023-04-07T00:44:22.669Z,0.75
2023-04-07T00:45:22.563Z,0.71
2023-04-07T00:46:22.577Z,0.68
2023-04-07T00:47:22.566Z,0.65
2023-04-07T00:48:22.546Z,0.67
2023-04-07T00:49:22.536Z,0.68
2023-04-07T00:50:22.538Z,0.68
2023-04-07T00:51:22.468Z,0.68
2023-04-07T00:52:22.493Z,0.67
2023-04-07T00:53:22.455Z,0.64
2023-04-07T00:54:22.454Z,0.62
2023-04-07T00:55:22.457Z,0.60
2023-04-07T00:56:22.418Z,0.60
2023-04-07T00:57:22.410Z,0.57
2023-04-07T00:58:22.405Z,0.51
2023-04-07T00:59:22.380Z,0.52
2023-04-07T01:00:22.370Z,0.58
2023-04-07T01:01:22.434Z,0.60
2023-04-07T01:02:22.513Z,0.61
2023-04-07T01:03:22.556Z,0.60
2023-04-07T01:04:22.485Z,0.58
2023-04-07T01:05:22.306Z,0.60
2023-04-07T01:06:22.300Z,0.65
2023-04-07T01:07:22.270Z,0.68
2023-04-07T01:08:22.272Z,0.71
2023-04-07T01:09:22.290Z,0.75
2023-04-07T01:10:22.243Z,0.78
2023-04-07T01:11:22.266Z,0.85
2023-04-07T01:12:22.206Z,0.89
2023-04-07T01:13:22.224Z,0.92
2023-04-07T01:14:22.222Z,0.97
2023-04-07T01:15:22.156Z,0.98
2023-04-07T01:16:22.210Z,1.01
2023-04-07T01:17:22.160Z,1.03
2023-04-07T01:18:22.184Z,1.06
2023-04-07T01:19:22.122Z,1.08
2023-04-07T01:20:22.131Z,1.10
2023-04-07T01:21:22.121Z,1.10
2023-04-07T01:22:22.070Z,1.12
2023-04-07T01:23:22.078Z,1.12
2023-04-07T01:24:22.062Z,1.14
2023-04-07T01:25:22.060Z,1.12
2023-04-07T01:26:22.037Z,1.12
2023-04-07T01:27:22.024Z,1.12
2023-04-07T01:28:22.003Z,1.12
2023-04-07T01:29:22.030Z,1.08
2023-04-07T01:30:21.987Z,1.07
2023-04-07T01:31:21.987Z,1.04
2023-04-07T01:32:21.955Z,1.03
2023-04-07T01:33:21.956Z,1.03
2023-04-07T01:34:21.940Z,1.04
2023-04-07T01:35:21.917Z,1.06
2023-04-07T01:36:21.912Z,1.07
2023-04-07T01:37:21.929Z,1.14
2023-04-07T01:38:21.889Z,1.16
2023-04-07T01:39:21.907Z,1.22
2023-04-07T01:40:21.886Z,1.26
2023-04-07T01:41:21.831Z,1.33
2023-04-07T01:42:21.835Z,1.36
2023-04-07T01:43:21.810Z,1.42
2023-04-07T01:44:21.842Z,1.47
2023-04-07T01:45:21.802Z,1.51
2023-04-07T01:46:21.773Z,1.55
2023-04-07T01:47:21.970Z,1.58
2023-04-07T01:48:21.747Z,1.62
2023-04-07T01:49:21.751Z,1.69
2023-04-07T01:50:21.728Z,1.73
2023-04-07T01:51:21.804Z,1.73
2023-04-07T01:52:21.709Z,1.76
2023-04-07T01:53:21.685Z,1.75
2023-04-07T01:54:21.686Z,1.78
2023-04-07T01:55:21.715Z,1.75
2023-04-07T01:56:21.662Z,1.72
2023-04-07T01:57:21.645Z,1.71
2023-04-07T01:58:21.652Z,1.71
2023-04-07T01:59:21.624Z,1.72
2023-04-07T02:00:21.615Z,1.73
2023-04-07T02:01:21.645Z,1.75
2023-04-07T02:02:21.726Z,1.79
2023-04-07T02:03:21.754Z,1.82
2023-04-07T02:04:21.553Z,1.82
2023-04-07T02:05:21.582Z,1.83
2023-04-07T02:06:21.530Z,1.83
2023-04-07T02:07:21.510Z,1.87
2023-04-07T02:08:21.520Z,1.89
2023-04-07T02:09:21.508Z,1.87
2023-04-07T02:10:21.472Z,1.87
2023-04-07T02:11:21.486Z,1.89
2023-04-07T02:12:21.457Z,1.90
2023-04-07T02:13:21.473Z,1.91
2023-04-07T02:14:21.424Z,1.93
2023-04-07T02:15:21.476Z,1.89
2023-04-07T02:16:21.433Z,1.89
2023-04-07T02:17:21.395Z,1.89
2023-04-07T02:18:21.362Z,1.90
2023-04-07T02:19:21.388Z,1.91
2023-04-07T02:20:21.355Z,1.93
2023-04-07T02:21:21.339Z,1.93
2023-04-07T02:22:21.341Z,1.93
2023-04-07T02:23:21.329Z,1.94
2023-04-07T02:24:21.302Z,1.94
2023-04-07T02:25:21.289Z,1.90
2023-04-07T02:26:21.282Z,1.83
2023-04-07T02:27:21.254Z,1.83
2023-04-07T02:28:21.256Z,1.79
2023-04-07T02:29:21.237Z,1.75
2023-04-07T02:30:21.240Z,1.69
2023-04-07T02:31:21.237Z,1.72
2023-04-07T02:32:21.195Z,1.72
2023-04-07T02:33:21.233Z,1.69
2023-04-07T02:34:21.165Z,1.69
2023-04-07T02:35:21.210Z,1.68
2023-04-07T02:36:21.191Z,1.64
2023-04-07T02:37:21.151Z,1.64
2023-04-07T02:38:21.113Z,1.61
2023-04-07T02:39:21.133Z,1.60
2023-04-07T02:40:21.089Z,1.58
2023-04-07T02:41:21.078Z,1.58
2023-04-07T02:42:21.076Z,1.54
2023-04-07T02:43:21.059Z,1.52
2023-04-07T02:44:21.046Z,1.47
2023-04-07T02:45:21.025Z,1.44
2023-04-07T02:46:21.085Z,1.44
2023-04-07T02:47:21.106Z,1.44
2023-04-07T02:48:20.976Z,1.44
2023-04-07T02:49:20.968Z,1.42
2023-04-07T02:50:20.991Z,1.36
2023-04-07T02:51:20.951Z,1.36
2023-04-07T02:52:20.952Z,1.33
2023-04-07T02:53:20.919Z,1.34
2023-04-07T02:54:20.953Z,1.33
2023-04-07T02:55:20.887Z,1.32
2023-04-07T02:56:20.914Z,1.29
2023-04-07T02:57:20.874Z,1.26
2023-04-07T02:58:20.866Z,1.25
2023-04-07T02:59:20.865Z,1.26
2023-04-07T03:00:20.838Z,1.21
2023-04-07T03:01:20.856Z,1.21
2023-04-07T03:02:20.844Z,1.18
2023-04-07T03:03:21.042Z,1.18
2023-04-07T03:04:20.872Z,1.19
2023-04-07T03:05:20.797Z,1.19
2023-04-07T03:06:20.790Z,1.19
2023-04-07T03:07:20.755Z,1.18
2023-04-07T03:08:20.754Z,1.18
2023-04-07T03:09:20.720Z,1.15
2023-04-07T03:10:20.828Z,1.14
2023-04-07T03:11:20.691Z,1.14
2023-04-07T03:12:20.677Z,1.14
2023-04-07T03:13:20.675Z,1.15
2023-04-07T03:14:20.695Z,1.12
2023-04-07T03:15:20.660Z,1.10
2023-04-07T03:16:20.649Z,1.12
2023-04-07T03:17:20.661Z,1.14
2023-04-07T03:18:20.627Z,1.14
2023-04-07T03:19:20.592Z,1.08
2023-04-07T03:20:20.604Z,1.04
2023-04-07T03:21:20.562Z,1.00
2023-04-07T03:22:20.595Z,0.94
2023-04-07T03:23:20.556Z,0.89
2023-04-07T03:24:20.518Z,0.86
2023-04-07T03:25:20.624Z,0.82
2023-04-07T03:26:20.498Z,0.76
2023-04-07T03:27:20.501Z,0.68
2023-04-07T03:28:20.483Z,0.61
2023-04-07T03:29:20.458Z,0.51
2023-04-07T03:30:20.514Z,0.46
2023-04-07T03:31:20.491Z,0.43
2023-04-07T03:32:20.500Z,0.46
2023-04-07T03:33:20.449Z,0.45
2023-04-07T03:34:20.496Z,0.45
2023-04-07T03:35:20.438Z,0.43
2023-04-07T03:36:20.413Z,0.41
2023-04-07T03:37:20.366Z,0.42
2023-04-07T03:38:20.350Z,0.42
2023-04-07T03:39:20.332Z,0.42
2023-04-07T03:40:20.369Z,0.42
2023-04-07T03:41:20.326Z,0.46
2023-04-07T03:42:20.292Z,0.48
2023-04-07T03:43:20.275Z,0.49
2023-04-07T03:44:20.260Z,0.52
2023-04-07T03:45:20.279Z,0.53
2023-04-07T03:46:20.263Z,0.58
2023-04-07T03:47:20.231Z,0.60
2023-04-07T03:48:20.222Z,0.60
2023-04-07T03:49:20.214Z,0.53
2023-04-07T04:02:59.815Z,0.52
2023-04-07T04:04:00.071Z,0.52
2023-04-07T04:04:59.765Z,0.52
2023-04-07T04:05:59.691Z,0.49
2023-04-07T04:06:59.704Z,0.51
2023-04-07T04:07:59.689Z,0.52
2023-04-07T04:08:59.681Z,0.53
2023-04-07T04:09:59.640Z,0.53
2023-04-07T04:10:59.656Z,0.57
2023-04-07T04:11:59.629Z,0.53
2023-04-07T04:12:59.623Z,0.52
2023-04-07T04:13:59.591Z,0.52
2023-04-07T04:14:59.578Z,0.53
2023-04-07T04:15:59.667Z,0.52
2023-04-07T04:16:59.567Z,0.51
2023-04-07T04:17:59.568Z,0.52
2023-04-07T04:18:59.526Z,0.57
2023-04-07T04:19:59.556Z,0.57
2023-04-07T04:20:59.529Z,0.53
2023-04-07T04:21:59.515Z,0.52
2023-04-07T04:22:59.472Z,0.53
2023-04-07T04:23:59.518Z,0.57
2023-04-07T04:24:59.457Z,0.53
2023-04-07T04:25:59.446Z,0.51
2023-04-07T04:26:59.453Z,0.49
2023-04-07T04:27:59.447Z,0.48
2023-04-07T04:28:59.414Z,0.48
2023-04-07T04:29:59.404Z,0.52
2023-04-07T04:31:06.481Z,0.52
2023-04-07T04:32:06.872Z,0.51
2023-04-07T04:32:59.406Z,0.51
2023-04-07T04:33:59.331Z,0.51
2023-04-07T04:34:59.342Z,0.53
2023-04-07T04:35:59.316Z,0.58
2023-04-07T04:36:59.373Z,0.58
2023-04-07T04:37:59.329Z,0.60
2023-04-07T04:38:59.295Z,0.64
2023-04-07T04:39:59.279Z,0.65
2023-04-07T04:41:06.299Z,0.67
2023-04-07T04:41:59.268Z,0.71
2023-04-07T04:42:59.247Z,0.71
2023-04-07T04:43:59.215Z,0.72
2023-04-07T04:44:59.220Z,0.75
2023-04-07T04:45:59.211Z,0.76
2023-04-07T04:46:59.265Z,0.78
2023-04-07T04:47:59.204Z,0.80
2023-04-07T04:48:59.156Z,0.83
2023-04-07T04:49:59.152Z,0.83
2023-04-07T04:50:59.165Z,0.85
2023-04-07T04:51:59.115Z,0.86
2023-04-07T04:52:59.117Z,0.89
2023-04-07T04:53:59.112Z,0.92
2023-04-07T04:54:59.099Z,0.97
2023-04-07T04:55:59.063Z,1.00
2023-04-07T04:57:06.106Z,1.03
2023-04-07T04:58:06.560Z,1.06
2023-04-07T04:58:59.048Z,1.10
2023-04-07T05:00:07.385Z,1.10
2023-04-07T05:00:59.028Z,1.12
2023-04-07T05:01:59.041Z,1.16
2023-04-07T05:02:59.179Z,1.21
2023-04-07T05:03:59.647Z,1.22
2023-04-07T05:04:59.118Z,1.24
2023-04-07T05:05:58.947Z,1.24
2023-04-07T05:06:58.975Z,1.25
2023-04-07T05:07:58.925Z,1.29
2023-04-07T05:08:58.927Z,1.33
2023-04-07T05:09:58.937Z,1.37
2023-04-07T05:10:58.909Z,1.39
2023-04-07T05:11:58.913Z,1.44
2023-04-07T05:12:58.880Z,1.47
2023-04-07T05:13:58.875Z,1.52
2023-04-07T05:14:58.858Z,1.57
2023-04-07T05:15:58.865Z,1.64
2023-04-07T05:16:58.821Z,1.71
2023-04-07T05:17:58.838Z,1.73
2023-04-07T05:18:58.778Z,1.76
2023-04-07T05:19:58.818Z,1.82
2023-04-07T05:20:58.760Z,1.87
2023-04-07T05:21:58.754Z,1.93
2023-04-07T05:22:58.759Z,1.98
2023-04-07T05:23:58.749Z,2.01
2023-04-07T05:24:58.736Z,2.08
2023-04-07T05:25:58.713Z,2.12
2023-04-07T05:26:58.767Z,2.17
2023-04-07T05:27:58.679Z,2.27
2023-04-07T05:28:58.659Z,2.31
2023-04-07T05:29:58.650Z,2.34
2023-04-07T05:30:58.656Z,2.38
2023-04-07T05:31:58.652Z,2.45
2023-04-07T05:32:58.646Z,2.46
2023-04-07T05:33:58.605Z,2.49
2023-04-07T05:34:58.592Z,2.53
2023-04-07T05:35:58.684Z,2.56
2023-04-07T05:36:58.611Z,2.59
2023-04-07T05:37:58.544Z,2.66
2023-04-07T05:38:58.528Z,2.70
2023-04-07T05:39:58.525Z,2.71
2023-04-07T05:40:58.534Z,2.76
2023-04-07T05:41:58.513Z,2.81
2023-04-07T05:42:58.496Z,2.81
2023-04-07T05:43:58.470Z,2.82
2023-04-07T05:44:58.472Z,2.88
2023-04-07T05:45:58.542Z,2.94
2023-04-07T05:46:58.441Z,2.95
2023-04-07T05:47:58.468Z,2.94
2023-04-07T05:49:00.779Z,2.98
2023-04-07T05:49:59.393Z,2.97
2023-04-07T05:50:58.392Z,3.02
2023-04-07T05:51:58.385Z,3.03
2023-04-07T05:52:58.368Z,3.09
2023-04-07T05:53:58.346Z,3.15
2023-04-07T05:54:58.357Z,3.20
2023-04-07T05:55:58.328Z,3.25
2023-04-07T05:56:58.320Z,3.30
2023-04-07T05:57:58.312Z,3.36
2023-04-07T05:58:58.296Z,3.40
2023-04-07T05:59:58.270Z,3.40
2023-04-07T06:00:58.282Z,3.42
2023-04-07T06:01:58.371Z,3.46
2023-04-07T06:02:58.427Z,3.49
2023-04-07T06:03:58.233Z,3.54
2023-04-07T06:04:58.220Z,3.62
2023-04-07T06:05:58.222Z,3.70
2023-04-07T06:06:58.192Z,3.72
2023-04-07T06:07:58.164Z,3.76
2023-04-07T06:08:58.173Z,3.79
2023-04-07T06:09:58.123Z,3.80
2023-04-07T06:10:58.109Z,3.85
2023-04-07T06:11:58.115Z,3.90
2023-04-07T06:12:58.100Z,3.97
2023-04-07T06:13:58.094Z,4.03
2023-04-07T06:14:58.080Z,4.08
2023-04-07T06:15:58.060Z,4.16
2023-04-07T06:16:58.128Z,4.19
2023-04-07T06:17:58.163Z,4.25
2023-04-07T06:18:58.024Z,4.32
2023-04-07T06:19:58.000Z,4.36
2023-04-07T06:20:58.009Z,4.40
2023-04-07T06:22:05.016Z,4.43
2023-04-07T06:22:57.979Z,4.44
2023-04-07T06:24:04.965Z,4.50
2023-04-07T06:24:57.947Z,4.55
2023-04-07T06:25:57.933Z,4.59
2023-04-07T06:26:57.942Z,4.62
2023-04-07T06:27:57.921Z,4.64
2023-04-07T06:28:57.918Z,4.65
2023-04-07T06:29:57.872Z,4.67
2023-04-07T06:31:05.926Z,4.67
2023-04-07T06:31:57.844Z,4.69
2023-04-07T06:32:57.882Z,4.73
2023-04-07T06:33:57.839Z,4.76
2023-04-07T06:34:57.816Z,4.79
2023-04-07T06:36:04.810Z,4.83
2023-04-07T06:36:59.040Z,4.86
2023-04-07T06:38:07.506Z,4.89
2023-04-07T06:38:57.771Z,4.95
2023-04-07T06:39:57.764Z,5.02
2023-04-07T06:40:57.741Z,5.05
2023-04-07T06:41:57.730Z,5.07
2023-04-07T06:42:57.782Z,5.12
2023-04-07T06:43:57.719Z,5.14
2023-04-07T06:44:57.718Z,5.16
2023-04-07T06:45:57.713Z,5.14
2023-04-07T06:46:57.713Z,5.20
2023-04-07T06:47:57.695Z,5.25
2023-04-07T06:48:57.655Z,5.31
2023-04-07T06:49:57.653Z,5.32
2023-04-07T06:50:57.636Z,5.37
2023-04-07T06:51:57.615Z,5.40
2023-04-07T06:52:57.632Z,5.46
2023-04-07T06:53:57.595Z,5.48
2023-04-07T06:54:57.595Z,5.49
2023-04-07T06:55:57.595Z,5.53
2023-04-07T06:56:57.578Z,5.60
2023-04-07T06:57:57.583Z,5.67
2023-04-07T06:58:57.619Z,5.71
2023-04-07T06:59:57.512Z,5.77
2023-04-07T07:00:57.521Z,5.81
2023-04-07T07:01:57.603Z,5.83
2023-04-07T07:02:57.704Z,5.88
2023-04-07T07:03:57.606Z,5.92
2023-04-07T07:04:57.440Z,6.00
2023-04-07T07:05:57.434Z,6.01
2023-04-07T07:06:57.432Z,6.04
2023-04-07T07:07:57.399Z,6.10
2023-04-07T07:08:57.426Z,6.14
2023-04-07T07:09:57.385Z,6.22
2023-04-07T07:10:57.401Z,6.29
2023-04-07T07:11:57.362Z,6.35
2023-04-07T07:12:57.334Z,6.43
2023-04-07T07:13:57.349Z,6.48
2023-04-07T07:14:57.327Z,6.54
2023-04-07T07:15:57.344Z,6.61
2023-04-07T07:16:57.296Z,6.66
2023-04-07T07:17:57.337Z,6.73
2023-04-07T07:18:57.289Z,6.81
2023-04-07T07:19:57.250Z,6.87
2023-04-07T07:20:57.249Z,6.94
2023-04-07T07:21:57.227Z,7.01
2023-04-07T07:22:57.247Z,7.07
2023-04-07T07:23:57.223Z,7.13
2023-04-07T07:24:57.194Z,7.19
2023-04-07T07:25:57.187Z,7.26
2023-04-07T07:26:57.210Z,7.32
2023-04-07T07:27:57.163Z,7.38
2023-04-07T07:28:57.173Z,7.38
2023-04-07T07:29:57.133Z,7.44
2023-04-07T07:30:57.143Z,7.50
2023-04-07T07:31:57.121Z,7.52
2023-04-07T07:32:57.133Z,7.56
2023-04-07T07:33:57.106Z,7.62
2023-04-07T07:34:57.071Z,7.69
2023-04-07T07:35:57.050Z,7.72
2023-04-07T07:36:57.085Z,7.79
2023-04-07T07:37:57.034Z,7.82
2023-04-07T07:38:57.031Z,7.85
2023-04-07T07:39:57.015Z,7.92
2023-04-07T07:40:56.998Z,7.97
2023-04-07T07:41:56.991Z,7.99
2023-04-07T07:42:56.962Z,8.00
2023-04-07T07:43:56.984Z,8.08
2023-04-07T07:44:56.943Z,8.11
2023-04-07T07:45:56.941Z,8.17
2023-04-07T07:46:56.990Z,8.25
2023-04-07T07:47:56.975Z,8.32
2023-04-07T07:48:56.897Z,8.39
2023-04-07T07:49:56.902Z,8.48
2023-04-07T07:50:56.914Z,8.50
2023-04-07T07:51:56.857Z,8.48
2023-04-07T07:52:56.828Z,8.50
2023-04-07T07:53:56.842Z,8.55
2023-04-07T07:54:56.802Z,8.55
2023-04-07T07:55:56.797Z,8.45
2023-04-07T07:56:56.785Z,8.50
2023-04-07T07:57:56.767Z,8.50
2023-04-07T07:58:58.245Z,8.47
2023-04-07T07:59:56.787Z,8.48
2023-04-07T08:00:56.795Z,8.48
2023-04-07T08:01:56.768Z,8.54
2023-04-07T08:02:56.803Z,8.60
2023-04-07T08:03:56.917Z,8.71
2023-04-07T08:04:56.707Z,8.81
2023-04-07T08:05:56.666Z,8.84
2023-04-07T08:06:56.669Z,8.90
2023-04-07T08:07:56.671Z,8.99
2023-04-07T08:08:56.623Z,9.01
2023-04-07T08:09:56.649Z,9.05
2023-04-07T08:10:56.595Z,9.10
2023-04-07T08:11:56.777Z,9.15
2023-04-07T08:12:56.597Z,9.18
2023-04-07T08:13:56.579Z,9.27
2023-04-07T08:14:56.543Z,9.35
2023-04-07T08:15:56.554Z,9.46
2023-04-07T08:16:56.573Z,9.58
2023-04-07T08:17:56.660Z,9.68
2023-04-07T08:18:56.514Z,9.78
2023-04-07T08:19:56.500Z,9.89
2023-04-07T08:20:56.454Z,10.01
2023-04-07T08:21:56.452Z,10.12
2023-04-07T08:22:56.430Z,10.19
2023-04-07T08:23:56.480Z,10.25
2023-04-07T08:24:56.410Z,10.30
2023-04-07T08:25:56.409Z,10.39
2023-04-07T08:26:56.401Z,10.43
2023-04-07T08:27:56.397Z,10.52
2023-04-07T08:28:56.353Z,10.60
2023-04-07T08:29:56.369Z,10.71
2023-04-07T08:30:56.323Z,10.80
2023-04-07T08:31:56.513Z,10.86
2023-04-07T08:32:56.337Z,10.92
2023-04-07T08:33:56.302Z,10.96
2023-04-07T08:34:56.303Z,11.02
2023-04-07T08:35:56.324Z,11.11
2023-04-07T08:36:56.279Z,11.19
2023-04-07T08:37:56.256Z,11.24
2023-04-07T08:38:56.232Z,11.29
2023-04-07T08:39:56.238Z,11.38
2023-04-07T08:40:56.216Z,11.21
2023-04-07T08:41:56.184Z,11.24
2023-04-07T08:42:56.187Z,11.27
2023-04-07T08:43:56.166Z,11.29
2023-04-07T08:44:56.178Z,11.39
2023-04-07T08:45:56.142Z,11.47
2023-04-07T08:46:56.136Z,11.56
2023-04-07T08:47:56.170Z,11.68
2023-04-07T08:48:56.106Z,11.75
2023-04-07T08:49:56.115Z,11.87
2023-04-07T08:50:56.057Z,11.99
2023-04-07T08:51:56.056Z,11.97
2023-04-07T08:52:56.057Z,12.05
2023-04-07T08:53:56.049Z,12.13
2023-04-07T08:54:56.021Z,12.21
2023-04-07T08:55:56.014Z,12.31
2023-04-07T08:56:55.992Z,12.41
2023-04-07T08:57:56.012Z,12.44
2023-04-07T08:58:55.962Z,12.48
2023-04-07T08:59:55.978Z,12.52
2023-04-07T09:00:55.960Z,12.60
2023-04-07T09:01:55.961Z,12.62
2023-04-07T09:02:55.984Z,12.67
2023-04-07T09:03:55.947Z,12.77
2023-04-07T09:04:55.907Z,12.85
2023-04-07T09:05:55.882Z,12.87
2023-04-07T09:06:55.862Z,12.93
2023-04-07T09:07:55.861Z,12.97
2023-04-07T09:08:55.860Z,13.04
2023-04-07T09:09:55.843Z,13.12
2023-04-07T09:10:55.827Z,13.17
2023-04-07T09:11:55.804Z,13.15
2023-04-07T09:12:55.795Z,12.97
2023-04-07T09:13:55.816Z,12.67
2023-04-07T09:14:55.774Z,12.60
2023-04-07T09:15:55.762Z,12.54
2023-04-07T09:16:55.845Z,12.52
2023-04-07T09:17:55.777Z,12.51
2023-04-07T09:18:55.708Z,12.51
2023-04-07T09:19:55.727Z,12.57
2023-04-07T09:20:55.701Z,12.62
2023-04-07T09:21:55.674Z,12.66
2023-04-07T09:22:55.676Z,12.71
2023-04-07T09:23:55.669Z,12.82
2023-04-07T09:24:55.648Z,12.93
2023-04-07T09:25:55.625Z,13.00
2023-04-07T09:26:55.635Z,13.12
2023-04-07T09:27:55.620Z,13.22
2023-04-07T09:28:55.583Z,13.37
2023-04-07T09:29:55.576Z,13.52
2023-04-07T09:30:55.558Z,13.46
2023-04-07T09:31:55.609Z,13.38
2023-04-07T09:32:55.581Z,13.30
2023-04-07T09:33:55.578Z,13.25
2023-04-07T09:34:55.501Z,13.15
2023-04-07T09:35:55.593Z,13.14
2023-04-07T09:36:55.479Z,13.14
2023-04-07T09:37:55.482Z,13.17
2023-04-07T09:38:55.468Z,13.20
2023-04-07T09:39:55.459Z,13.27
2023-04-07T09:40:56.516Z,13.32
2023-04-07T09:41:55.456Z,13.46
2023-04-07T09:42:55.391Z,13.58
2023-04-07T09:43:55.396Z,13.76
2023-04-07T09:44:55.396Z,13.96
2023-04-07T09:45:55.385Z,14.12
2023-04-07T09:46:55.364Z,14.27
2023-04-07T10:03:27.592Z,14.54
2023-04-07T10:04:27.561Z,14.80
2023-04-07T10:05:27.563Z,14.98
2023-04-07T10:06:27.557Z,15.06
2023-04-07T10:07:27.502Z,15.08
2023-04-07T10:08:27.500Z,15.13
2023-04-07T10:09:27.501Z,15.08
2023-04-07T10:10:27.504Z,15.06
2023-04-07T10:11:27.445Z,15.20
2023-04-07T10:12:27.464Z,15.17
2023-04-07T10:13:27.448Z,15.19
2023-04-07T10:14:27.429Z,15.20
2023-04-07T10:15:27.430Z,15.24
2023-04-07T10:16:27.466Z,15.24
2023-04-07T10:17:27.402Z,15.31
2023-04-07T10:18:27.392Z,15.41
2023-04-07T10:19:27.357Z,15.45
2023-04-07T10:20:27.358Z,15.48
2023-04-07T10:21:27.335Z,15.51
2023-04-07T10:22:27.338Z,15.56
2023-04-07T10:23:27.409Z,15.56
2023-04-07T10:24:27.280Z,15.66
2023-04-07T10:25:27.303Z,15.68
2023-04-07T10:26:27.275Z,15.76
2023-04-07T10:27:27.244Z,15.86
2023-04-07T10:28:27.244Z,15.97
2023-04-07T10:29:27.215Z,15.99
2023-04-07T10:30:27.248Z,15.97
2023-04-07T10:31:27.214Z,15.85
2023-04-07T10:32:27.298Z,15.66
2023-04-07T10:33:27.153Z,15.46
2023-04-07T10:34:27.156Z,15.36
2023-04-07T10:35:27.211Z,15.20
2023-04-07T10:36:27.141Z,15.13
2023-04-07T10:37:27.099Z,14.99
2023-04-07T10:38:27.128Z,14.74
2023-04-07T10:39:27.084Z,14.83
2023-04-07T10:40:27.097Z,14.87
2023-04-07T10:41:34.073Z,14.90
2023-04-07T10:42:27.136Z,14.90
2023-04-07T10:43:27.029Z,14.81
2023-04-07T10:44:34.265Z,14.90
2023-04-07T10:45:34.019Z,15.06
2023-04-07T10:46:34.083Z,15.26
2023-04-07T10:47:26.992Z,15.36
2023-04-07T10:48:34.005Z,15.49
2023-04-07T10:49:26.961Z,15.51
2023-04-07T10:50:26.948Z,15.51
2023-04-07T10:51:26.933Z,15.60
2023-04-07T10:52:26.922Z,15.68
2023-04-07T10:53:26.913Z,15.70
2023-04-07T10:54:29.098Z,15.68
2023-04-07T10:55:26.912Z,15.74
2023-04-07T10:56:26.869Z,15.85
2023-04-07T10:57:26.869Z,15.67
2023-04-07T10:58:26.876Z,15.66
2023-04-07T10:59:26.832Z,15.78
2023-04-07T11:00:26.826Z,15.99
2023-04-07T11:01:26.925Z,16.15
2023-04-07T11:02:26.917Z,16.15
2023-04-07T11:03:26.878Z,16.12
2023-04-07T11:04:26.831Z,16.12
2023-04-07T11:05:26.768Z,16.18
2023-04-07T11:06:26.765Z,16.12
2023-04-07T11:07:26.721Z,16.20
2023-04-07T11:08:26.738Z,16.33
2023-04-07T11:09:26.691Z,16.53
2023-04-07T11:10:26.706Z,16.62
2023-04-07T11:11:26.708Z,16.27
2023-04-07T11:12:26.674Z,16.12
2023-04-07T11:13:26.651Z,16.04
2023-04-07T11:14:26.648Z,16.14
2023-04-07T11:15:26.616Z,16.04
2023-04-07T11:16:26.672Z,16.01
2023-04-07T11:17:26.637Z,15.81
2023-04-07T11:18:26.598Z,15.75
2023-04-07T11:19:26.584Z,15.74
2023-04-07T11:20:26.556Z,15.49
2023-04-07T11:21:26.675Z,15.38
2023-04-07T11:22:30.393Z,15.17
2023-04-07T11:23:26.649Z,14.99
2023-04-07T11:24:26.523Z,14.90
2023-04-07T11:25:26.499Z,14.86
2023-04-07T11:26:26.518Z,14.88
2023-04-07T11:27:26.488Z,14.94
2023-04-07T11:28:26.454Z,15.27
2023-04-07T11:29:26.447Z,15.49
2023-04-07T11:30:26.448Z,15.81
2023-04-07T11:31:26.475Z,15.96
2023-04-07T11:32:26.458Z,15.88
2023-04-07T11:33:26.389Z,15.70
2023-04-07T11:34:26.385Z,15.61
2023-04-07T11:35:26.373Z,15.57
2023-04-07T11:36:26.384Z,15.52
2023-04-07T11:37:26.335Z,15.45
2023-04-07T11:38:26.346Z,15.41
2023-04-07T11:39:26.404Z,15.33
2023-04-07T11:40:26.322Z,15.26
2023-04-07T11:41:26.307Z,15.27
2023-04-07T11:42:26.284Z,15.12
2023-04-07T11:43:26.272Z,15.02
2023-04-07T11:44:26.244Z,14.98
2023-04-07T11:45:26.232Z,14.91
2023-04-07T11:46:26.270Z,14.83
2023-04-07T11:47:26.211Z,14.87
2023-04-07T11:48:26.258Z,14.99
2023-04-07T11:49:26.272Z,15.08
2023-04-07T11:50:26.177Z,15.11
2023-04-07T11:51:26.167Z,15.06
2023-04-07T11:52:26.187Z,15.03
2023-04-07T11:53:26.148Z,15.09
2023-04-07T11:54:26.130Z,15.13
2023-04-07T11:55:26.137Z,15.24
2023-04-07T11:56:26.130Z,15.28
2023-04-07T11:57:26.118Z,15.36
2023-04-07T11:58:26.072Z,15.51
2023-04-07T11:59:26.050Z,15.59
2023-04-07T12:00:26.076Z,15.70
2023-04-07T12:01:26.071Z,15.79
2023-04-07T12:02:26.103Z,15.86
2023-04-07T12:03:26.172Z,15.96
2023-04-07T12:04:26.239Z,16.04
2023-04-07T12:05:25.980Z,16.09
2023-04-07T12:06:26.006Z,16.06
2023-04-07T12:07:27.382Z,15.93
2023-04-07T12:08:25.948Z,15.96
2023-04-07T12:09:25.932Z,16.00
2023-04-07T12:10:25.923Z,16.09
2023-04-07T12:11:25.912Z,16.18
2023-04-07T12:12:25.921Z,16.27
2023-04-07T12:13:25.874Z,16.37
2023-04-07T12:14:25.862Z,16.48
2023-04-07T12:15:25.864Z,16.62
2023-04-07T12:16:25.895Z,16.86
2023-04-07T12:17:25.861Z,17.06
2023-04-07T12:18:25.805Z,17.18
2023-04-07T12:19:25.815Z,17.32
2023-04-07T12:20:25.795Z,17.47
2023-04-07T12:21:25.792Z,17.44
2023-04-07T12:22:25.788Z,17.47
2023-04-07T12:23:25.747Z,17.48
2023-04-07T12:24:25.755Z,17.46
2023-04-07T12:25:25.722Z,17.43
2023-04-07T12:26:25.714Z,17.25
2023-04-07T12:27:39.677Z,17.03
2023-04-07T12:28:26.676Z,16.86
2023-04-07T12:29:25.662Z,16.83
2023-04-07T12:30:25.658Z,16.80
2023-04-07T12:31:25.706Z,16.77
2023-04-07T12:32:25.691Z,16.81
2023-04-07T12:33:25.610Z,16.86
2023-04-07T12:34:25.617Z,16.90
2023-04-07T12:35:25.625Z,16.96
2023-04-07T12:36:25.574Z,16.99
2023-04-07T12:37:25.587Z,17.03
2023-04-07T12:38:25.588Z,16.92
2023-04-07T12:39:25.541Z,16.70
2023-04-07T12:40:25.528Z,16.45
2023-04-07T12:41:25.539Z,16.16
2023-04-07T12:42:25.509Z,15.97
2023-04-07T12:43:25.528Z,15.70
2023-04-07T12:44:25.483Z,15.61
2023-04-07T12:45:25.465Z,15.51
2023-04-07T12:46:25.564Z,15.48
2023-04-07T12:47:25.487Z,15.41
2023-04-07T12:48:25.447Z,15.39
2023-04-07T12:49:25.409Z,15.36
2023-04-07T12:50:25.407Z,15.41
2023-04-07T12:51:25.410Z,15.49
2023-04-07T12:52:25.373Z,15.66
2023-04-07T12:53:25.407Z,15.82
2023-04-07T12:54:25.331Z,15.94
2023-04-07T12:55:25.335Z,16.00
2023-04-07T12:56:25.328Z,16.07
2023-04-07T12:57:25.317Z,16.06
2023-04-07T12:58:32.296Z,15.88
2023-04-07T12:59:25.279Z,15.78
2023-04-07T13:00:33.274Z,15.79
2023-04-07T13:01:25.281Z,15.96
2023-04-07T13:02:25.341Z,16.04
2023-04-07T13:03:25.432Z,16.07
2023-04-07T13:04:25.451Z,16.11
2023-04-07T13:05:25.213Z,16.23
2023-04-07T13:06:25.219Z,16.33
2023-04-07T13:07:25.182Z,16.40
2023-04-07T13:08:25.176Z,16.48
2023-04-07T13:09:25.210Z,16.50
2023-04-07T13:10:25.142Z,16.49
2023-04-07T13:11:25.156Z,16.38
2023-04-07T13:12:25.126Z,16.33
2023-04-07T13:13:25.116Z,16.34
2023-04-07T13:14:25.134Z,16.30
2023-04-07T13:15:25.091Z,16.14
2023-04-07T13:16:25.084Z,16.11
2023-04-07T13:17:25.102Z,16.06
2023-04-07T13:18:25.056Z,15.93
2023-04-07T13:19:25.021Z,15.49
2023-04-07T13:20:25.011Z,15.20
2023-04-07T13:22:24.996Z,15.08
2023-04-07T13:23:26.325Z,14.93
2023-04-07T13:24:24.974Z,14.86
2023-04-07T13:25:25.002Z,14.75
2023-04-07T13:26:25.006Z,14.64
2023-04-07T13:27:25.016Z,14.54
2023-04-07T13:28:24.923Z,14.53
2023-04-07T13:29:25.035Z,14.52
2023-04-07T13:30:24.932Z,14.46
2023-04-07T13:31:24.973Z,14.47
2023-04-07T13:32:24.894Z,14.49
2023-04-07T13:33:24.848Z,14.53
2023-04-07T13:34:24.868Z,14.60
2023-04-07T13:35:24.808Z,14.64
2023-04-07T13:36:24.862Z,14.61
2023-04-07T13:37:24.802Z,14.61